sensor_id;sensor_type;location;lat;lon;timestamp;pressure;altitude;pressure_sealevel;temperature;humidity
13869;BME280;7004;48.206;16.402;2024-01-06T00:00:01;98559.16;;;6.39;82.55
13869;BME280;7004;48.206;16.402;2024-01-06T00:02:28;98547.75;;;6.26;83.57
13869;BME280;7004;48.206;16.402;2024-01-06T00:04:54;98545.19;;;6.39;83.08
13869;BME280;7004;48.206;16.402;2024-01-06T00:07:20;98541.59;;;6.40;82.83
13869;BME280;7004;48.206;16.402;2024-01-06T00:09:46;98537.16;;;6.27;83.18
13869;BME280;7004;48.206;16.402;2024-01-06T00:12:12;98547.09;;;6.22;83.90
13869;BME280;7004;48.206;16.402;2024-01-06T00:14:39;98545.22;;;6.24;84.33
13869;BME280;7004;48.206;16.402;2024-01-06T00:17:08;98554.97;;;6.22;84.52
13869;BME280;7004;48.206;16.402;2024-01-06T00:19:38;98556.19;;;6.31;83.72
13869;BME280;7004;48.206;16.402;2024-01-06T00:22:04;98553.78;;;6.41;84.96
13869;BME280;7004;48.206;16.402;2024-01-06T00:24:31;98551.44;;;6.23;85.68
13869;BME280;7004;48.206;16.402;2024-01-06T00:26:57;98553.72;;;6.01;87.19
13869;BME280;7004;48.206;16.402;2024-01-06T00:29:23;98547.91;;;6.10;86.44
13869;BME280;7004;48.206;16.402;2024-01-06T00:31:50;98553.03;;;6.11;87.02
13869;BME280;7004;48.206;16.402;2024-01-06T00:34:16;98556.00;;;6.20;86.11
13869;BME280;7004;48.206;16.402;2024-01-06T00:36:42;98559.91;;;6.00;86.78
13869;BME280;7004;48.206;16.402;2024-01-06T00:39:09;98569.38;;;6.02;88.32
13869;BME280;7004;48.206;16.402;2024-01-06T00:41:35;98571.69;;;6.07;87.72
13869;BME280;7004;48.206;16.402;2024-01-06T00:44:01;98566.84;;;6.01;89.40
13869;BME280;7004;48.206;16.402;2024-01-06T00:46:27;98566.34;;;6.23;89.11
13869;BME280;7004;48.206;16.402;2024-01-06T00:48:53;98568.91;;;6.10;89.21
13869;BME280;7004;48.206;16.402;2024-01-06T00:51:20;98559.50;;;6.20;90.45
13869;BME280;7004;48.206;16.402;2024-01-06T00:53:46;98562.47;;;6.28;89.10
13869;BME280;7004;48.206;16.402;2024-01-06T00:56:14;98566.13;;;6.26;89.71
13869;BME280;7004;48.206;16.402;2024-01-06T00:58:40;98555.13;;;6.33;90.23
13869;BME280;7004;48.206;16.402;2024-01-06T01:01:06;98543.22;;;6.15;91.46
13869;BME280;7004;48.206;16.402;2024-01-06T01:03:32;98552.19;;;6.11;91.59
13869;BME280;7004;48.206;16.402;2024-01-06T01:05:58;98541.63;;;6.12;92.08
13869;BME280;7004;48.206;16.402;2024-01-06T01:08:25;98550.28;;;6.27;92.20
13869;BME280;7004;48.206;16.402;2024-01-06T01:10:51;98550.31;;;6.40;91.74
13869;BME280;7004;48.206;16.402;2024-01-06T01:13:18;98558.69;;;6.32;92.27
13869;BME280;7004;48.206;16.402;2024-01-06T01:15:44;98557.00;;;6.31;93.22
13869;BME280;7004;48.206;16.402;2024-01-06T01:18:11;98555.13;;;6.33;92.35
13869;BME280;7004;48.206;16.402;2024-01-06T01:20:37;98568.44;;;6.57;92.37
13869;BME280;7004;48.206;16.402;2024-01-06T01:23:04;98568.31;;;6.46;92.55
13869;BME280;7004;48.206;16.402;2024-01-06T01:25:30;98578.06;;;6.44;92.33
13869;BME280;7004;48.206;16.402;2024-01-06T01:27:57;98562.53;;;6.41;91.98
13869;BME280;7004;48.206;16.402;2024-01-06T01:30:23;98569.78;;;6.23;93.89
13869;BME280;7004;48.206;16.402;2024-01-06T01:32:50;98569.34;;;6.44;92.45
13869;BME280;7004;48.206;16.402;2024-01-06T01:35:16;98565.81;;;6.57;92.71
13869;BME280;7004;48.206;16.402;2024-01-06T01:37:42;98567.44;;;6.46;93.33
13869;BME280;7004;48.206;16.402;2024-01-06T01:40:08;98564.13;;;6.02;93.75
13869;BME280;7004;48.206;16.402;2024-01-06T01:42:34;98558.34;;;6.24;94.23
13869;BME280;7004;48.206;16.402;2024-01-06T01:45:01;98559.66;;;6.17;94.79
13869;BME280;7004;48.206;16.402;2024-01-06T01:47:27;98563.38;;;6.27;93.76
13869;BME280;7004;48.206;16.402;2024-01-06T01:49:55;98553.03;;;6.11;95.81
13869;BME280;7004;48.206;16.402;2024-01-06T01:52:22;98554.47;;;6.30;94.78
13869;BME280;7004;48.206;16.402;2024-01-06T01:54:48;98554.88;;;6.24;94.84
13869;BME280;7004;48.206;16.402;2024-01-06T01:57:15;98548.25;;;6.18;95.82
13869;BME280;7004;48.206;16.402;2024-01-06T01:59:42;98540.09;;;6.23;95.44
13869;BME280;7004;48.206;16.402;2024-01-06T02:02:09;98538.31;;;6.23;96.13
13869;BME280;7004;48.206;16.402;2024-01-06T02:04:35;98528.59;;;6.51;95.38
13869;BME280;7004;48.206;16.402;2024-01-06T02:07:01;98522.53;;;6.50;95.09
13869;BME280;7004;48.206;16.402;2024-01-06T02:09:27;98530.31;;;6.52;95.30
13869;BME280;7004;48.206;16.402;2024-01-06T02:11:57;98521.78;;;6.36;95.68
13869;BME280;7004;48.206;16.402;2024-01-06T02:14:24;98521.91;;;6.47;95.19
13869;BME280;7004;48.206;16.402;2024-01-06T02:16:50;98513.72;;;6.24;96.04
13869;BME280;7004;48.206;16.402;2024-01-06T02:19:17;98514.78;;;6.22;97.32
13869;BME280;7004;48.206;16.402;2024-01-06T02:21:48;98508.28;;;6.27;96.80
13869;BME280;7004;48.206;16.402;2024-01-06T02:24:15;98502.00;;;5.88;97.37
13869;BME280;7004;48.206;16.402;2024-01-06T02:26:41;98502.53;;;6.35;97.69
13869;BME280;7004;48.206;16.402;2024-01-06T02:29:07;98501.03;;;6.18;97.23
13869;BME280;7004;48.206;16.402;2024-01-06T02:31:34;98497.06;;;6.38;97.46
13869;BME280;7004;48.206;16.402;2024-01-06T02:34:00;98498.25;;;5.93;98.51
13869;BME280;7004;48.206;16.402;2024-01-06T02:36:26;98498.53;;;5.88;99.29
13869;BME280;7004;48.206;16.402;2024-01-06T02:38:52;98495.50;;;5.81;100.00
13869;BME280;7004;48.206;16.402;2024-01-06T02:41:18;98494.88;;;6.32;98.42
13869;BME280;7004;48.206;16.402;2024-01-06T02:43:44;98497.22;;;6.49;97.74
13869;BME280;7004;48.206;16.402;2024-01-06T02:46:10;98494.50;;;6.64;97.58
13869;BME280;7004;48.206;16.402;2024-01-06T02:48:37;98502.34;;;6.51;97.85
13869;BME280;7004;48.206;16.402;2024-01-06T02:51:03;98504.28;;;6.49;98.58
13869;BME280;7004;48.206;16.402;2024-01-06T02:53:31;98498.28;;;6.47;97.01
13869;BME280;7004;48.206;16.402;2024-01-06T02:55:57;98493.06;;;6.32;97.75
13869;BME280;7004;48.206;16.402;2024-01-06T02:58:23;98497.34;;;6.21;98.46
13869;BME280;7004;48.206;16.402;2024-01-06T03:00:49;98494.63;;;6.22;98.74
13869;BME280;7004;48.206;16.402;2024-01-06T03:03:15;98497.06;;;6.38;98.13
13869;BME280;7004;48.206;16.402;2024-01-06T03:05:42;98491.59;;;6.28;98.01
13869;BME280;7004;48.206;16.402;2024-01-06T03:08:08;98486.06;;;6.33;98.43
13869;BME280;7004;48.206;16.402;2024-01-06T03:10:34;98492.25;;;6.05;99.66
13869;BME280;7004;48.206;16.402;2024-01-06T03:13:03;98495.31;;;6.39;99.27
13869;BME280;7004;48.206;16.402;2024-01-06T03:15:30;98489.88;;;6.54;97.63
13869;BME280;7004;48.206;16.402;2024-01-06T03:17:57;98493.66;;;6.50;97.59
13869;BME280;7004;48.206;16.402;2024-01-06T03:20:28;98488.69;;;6.46;98.13
13869;BME280;7004;48.206;16.402;2024-01-06T03:22:54;98482.91;;;6.41;98.27
13869;BME280;7004;48.206;16.402;2024-01-06T03:25:24;98485.66;;;6.12;98.39
13869;BME280;7004;48.206;16.402;2024-01-06T03:27:51;98485.72;;;6.65;98.02
13869;BME280;7004;48.206;16.402;2024-01-06T03:30:17;98485.25;;;6.58;98.11
13869;BME280;7004;48.206;16.402;2024-01-06T03:32:43;98480.13;;;6.56;98.19
13869;BME280;7004;48.206;16.402;2024-01-06T03:35:09;98483.69;;;6.55;98.80
13869;BME280;7004;48.206;16.402;2024-01-06T03:37:35;98489.06;;;6.67;96.95
13869;BME280;7004;48.206;16.402;2024-01-06T03:40:01;98493.94;;;6.46;98.02
13869;BME280;7004;48.206;16.402;2024-01-06T03:42:28;98490.47;;;6.45;97.42
13869;BME280;7004;48.206;16.402;2024-01-06T03:44:54;98492.91;;;6.08;99.27
13869;BME280;7004;48.206;16.402;2024-01-06T03:47:20;98495.97;;;6.15;99.75
13869;BME280;7004;48.206;16.402;2024-01-06T03:49:47;98491.56;;;6.16;99.31
13869;BME280;7004;48.206;16.402;2024-01-06T03:52:13;98492.16;;;6.33;98.75
13869;BME280;7004;48.206;16.402;2024-01-06T03:54:39;98480.72;;;5.93;99.71
13869;BME280;7004;48.206;16.402;2024-01-06T03:57:06;98484.84;;;6.51;99.11
13869;BME280;7004;48.206;16.402;2024-01-06T03:59:32;98486.44;;;6.67;97.51
13869;BME280;7004;48.206;16.402;2024-01-06T04:01:58;98492.03;;;6.35;98.30
13869;BME280;7004;48.206;16.402;2024-01-06T04:04:25;98495.19;;;6.40;98.88
13869;BME280;7004;48.206;16.402;2024-01-06T04:06:51;98506.81;;;6.23;99.82
13869;BME280;7004;48.206;16.402;2024-01-06T04:09:17;98505.41;;;6.45;100.00
13869;BME280;7004;48.206;16.402;2024-01-06T04:11:43;98519.16;;;5.80;100.00
13869;BME280;7004;48.206;16.402;2024-01-06T04:14:10;98509.56;;;5.66;100.00
13869;BME280;7004;48.206;16.402;2024-01-06T04:16:37;98511.31;;;6.21;100.00
13869;BME280;7004;48.206;16.402;2024-01-06T04:19:03;98505.53;;;6.16;99.70
13869;BME280;7004;48.206;16.402;2024-01-06T04:21:32;98513.31;;;6.18;99.93
13869;BME280;7004;48.206;16.402;2024-01-06T04:23:58;98521.66;;;6.37;99.59
13869;BME280;7004;48.206;16.402;2024-01-06T04:26:24;98525.94;;;6.25;99.38
13869;BME280;7004;48.206;16.402;2024-01-06T04:28:51;98531.13;;;6.12;100.00
13869;BME280;7004;48.206;16.402;2024-01-06T04:31:17;98531.34;;;6.22;100.00
13869;BME280;7004;48.206;16.402;2024-01-06T04:33:43;98532.00;;;6.26;100.00
13869;BME280;7004;48.206;16.402;2024-01-06T04:36:09;98529.81;;;6.05;100.00
13869;BME280;7004;48.206;16.402;2024-01-06T04:38:35;98525.44;;;6.33;100.00
13869;BME280;7004;48.206;16.402;2024-01-06T04:41:01;98522.66;;;6.22;100.00
13869;BME280;7004;48.206;16.402;2024-01-06T04:43:27;98531.94;;;6.40;100.00
13869;BME280;7004;48.206;16.402;2024-01-06T04:45:53;98531.97;;;6.53;98.95
13869;BME280;7004;48.206;16.402;2024-01-06T04:48:20;98538.06;;;6.53;99.46
13869;BME280;7004;48.206;16.402;2024-01-06T04:50:46;98539.56;;;6.57;99.02
13869;BME280;7004;48.206;16.402;2024-01-06T04:53:12;98541.16;;;6.60;98.56
13869;BME280;7004;48.206;16.402;2024-01-06T04:55:38;98539.28;;;6.62;97.51
13869;BME280;7004;48.206;16.402;2024-01-06T04:58:04;98541.75;;;6.51;98.53
13869;BME280;7004;48.206;16.402;2024-01-06T05:00:30;98537.78;;;6.58;97.95
13869;BME280;7004;48.206;16.402;2024-01-06T05:02:56;98544.09;;;6.28;99.68
13869;BME280;7004;48.206;16.402;2024-01-06T05:05:22;98543.91;;;6.31;99.99
13869;BME280;7004;48.206;16.402;2024-01-06T05:07:49;98539.53;;;6.45;99.30
13869;BME280;7004;48.206;16.402;2024-01-06T05:10:15;98549.78;;;6.35;99.82
13869;BME280;7004;48.206;16.402;2024-01-06T05:12:41;98551.06;;;6.42;100.00
13869;BME280;7004;48.206;16.402;2024-01-06T05:15:08;98546.28;;;6.49;100.00
13869;BME280;7004;48.206;16.402;2024-01-06T05:17:36;98544.28;;;6.52;99.98
13869;BME280;7004;48.206;16.402;2024-01-06T05:20:03;98535.84;;;6.47;100.00
13869;BME280;7004;48.206;16.402;2024-01-06T05:22:29;98535.41;;;6.81;99.04
13869;BME280;7004;48.206;16.402;2024-01-06T05:24:55;98550.44;;;6.78;98.38
13869;BME280;7004;48.206;16.402;2024-01-06T05:27:22;98544.81;;;6.57;98.60
13869;BME280;7004;48.206;16.402;2024-01-06T05:29:47;98539.63;;;6.43;99.89
13869;BME280;7004;48.206;16.402;2024-01-06T05:32:16;98533.72;;;6.40;99.80
13869;BME280;7004;48.206;16.402;2024-01-06T05:34:43;98538.03;;;6.13;100.00
13869;BME280;7004;48.206;16.402;2024-01-06T05:37:10;98527.84;;;6.09;100.00
13869;BME280;7004;48.206;16.402;2024-01-06T05:39:38;98527.56;;;6.13;100.00
13869;BME280;7004;48.206;16.402;2024-01-06T05:42:06;98531.28;;;6.64;100.00
13869;BME280;7004;48.206;16.402;2024-01-06T05:44:36;98540.34;;;6.72;99.39
13869;BME280;7004;48.206;16.402;2024-01-06T05:47:03;98551.84;;;6.57;100.00
13869;BME280;7004;48.206;16.402;2024-01-06T05:49:30;98545.91;;;6.41;99.86
13869;BME280;7004;48.206;16.402;2024-01-06T05:51:56;98551.69;;;6.46;99.79
13869;BME280;7004;48.206;16.402;2024-01-06T05:54:22;98547.47;;;6.30;100.00
13869;BME280;7004;48.206;16.402;2024-01-06T05:56:48;98538.00;;;6.28;100.00
13869;BME280;7004;48.206;16.402;2024-01-06T05:59:14;98546.53;;;6.31;100.00
13869;BME280;7004;48.206;16.402;2024-01-06T06:01:40;98534.56;;;6.40;100.00
13869;BME280;7004;48.206;16.402;2024-01-06T06:04:11;98540.56;;;6.42;100.00
13869;BME280;7004;48.206;16.402;2024-01-06T06:06:37;98549.66;;;6.64;99.41
13869;BME280;7004;48.206;16.402;2024-01-06T06:09:03;98563.66;;;6.37;100.00
13869;BME280;7004;48.206;16.402;2024-01-06T06:11:33;98570.13;;;6.31;100.00
13869;BME280;7004;48.206;16.402;2024-01-06T06:14:00;98568.75;;;6.53;100.00
13869;BME280;7004;48.206;16.402;2024-01-06T06:16:28;98563.25;;;6.43;100.00
13869;BME280;7004;48.206;16.402;2024-01-06T06:18:55;98560.47;;;6.32;100.00
13869;BME280;7004;48.206;16.402;2024-01-06T06:21:21;98560.31;;;6.48;100.00
13869;BME280;7004;48.206;16.402;2024-01-06T06:23:47;98558.72;;;6.72;99.38
13869;BME280;7004;48.206;16.402;2024-01-06T06:26:13;98570.56;;;6.65;99.45
13869;BME280;7004;48.206;16.402;2024-01-06T06:28:39;98559.94;;;6.54;100.00
13869;BME280;7004;48.206;16.402;2024-01-06T06:31:07;98559.47;;;6.47;100.00
13869;BME280;7004;48.206;16.402;2024-01-06T06:33:33;98562.06;;;6.34;100.00
13869;BME280;7004;48.206;16.402;2024-01-06T06:35:59;98566.13;;;6.53;100.00
13869;BME280;7004;48.206;16.402;2024-01-06T06:38:26;98568.53;;;6.56;100.00
13869;BME280;7004;48.206;16.402;2024-01-06T06:40:52;98567.06;;;6.52;100.00
13869;BME280;7004;48.206;16.402;2024-01-06T06:43:18;98571.81;;;6.60;98.78
13869;BME280;7004;48.206;16.402;2024-01-06T06:45:44;98576.25;;;6.59;99.12
13869;BME280;7004;48.206;16.402;2024-01-06T06:48:10;98576.44;;;6.69;100.00
13869;BME280;7004;48.206;16.402;2024-01-06T06:50:37;98576.28;;;6.72;99.88
13869;BME280;7004;48.206;16.402;2024-01-06T06:53:04;98571.81;;;6.60;99.86
13869;BME280;7004;48.206;16.402;2024-01-06T06:55:30;98568.81;;;6.39;100.00
13869;BME280;7004;48.206;16.402;2024-01-06T06:57:56;98578.13;;;6.57;100.00
13869;BME280;7004;48.206;16.402;2024-01-06T07:00:23;98583.63;;;6.67;99.80
13869;BME280;7004;48.206;16.402;2024-01-06T07:02:49;98585.72;;;6.74;99.91
13869;BME280;7004;48.206;16.402;2024-01-06T07:05:15;98585.44;;;6.52;100.00
13869;BME280;7004;48.206;16.402;2024-01-06T07:07:41;98593.72;;;6.73;100.00
13869;BME280;7004;48.206;16.402;2024-01-06T07:10:13;98587.81;;;6.69;100.00
13869;BME280;7004;48.206;16.402;2024-01-06T07:12:39;98589.31;;;6.86;99.38
13869;BME280;7004;48.206;16.402;2024-01-06T07:15:06;98594.41;;;6.62;99.80
13869;BME280;7004;48.206;16.402;2024-01-06T07:17:34;98603.56;;;6.42;100.00
13869;BME280;7004;48.206;16.402;2024-01-06T07:20:00;98606.69;;;6.34;100.00
13869;BME280;7004;48.206;16.402;2024-01-06T07:22:26;98607.34;;;6.65;100.00
13869;BME280;7004;48.206;16.402;2024-01-06T07:24:52;98603.28;;;6.87;100.00
13869;BME280;7004;48.206;16.402;2024-01-06T07:27:18;98604.66;;;6.52;100.00
13869;BME280;7004;48.206;16.402;2024-01-06T07:29:44;98611.13;;;6.20;100.00
13869;BME280;7004;48.206;16.402;2024-01-06T07:32:10;98606.66;;;6.49;100.00
13869;BME280;7004;48.206;16.402;2024-01-06T07:34:36;98611.78;;;6.50;100.00
13869;BME280;7004;48.206;16.402;2024-01-06T07:37:02;98611.59;;;6.53;100.00
13869;BME280;7004;48.206;16.402;2024-01-06T07:39:29;98617.88;;;6.51;100.00
13869;BME280;7004;48.206;16.402;2024-01-06T07:41:55;98622.09;;;6.12;100.00
13869;BME280;7004;48.206;16.402;2024-01-06T07:44:21;98618.69;;;6.39;100.00
13869;BME280;7004;48.206;16.402;2024-01-06T07:46:52;98615.50;;;6.61;100.00
13869;BME280;7004;48.206;16.402;2024-01-06T07:49:18;98618.25;;;6.59;100.00
13869;BME280;7004;48.206;16.402;2024-01-06T07:51:44;98615.38;;;6.49;100.00
13869;BME280;7004;48.206;16.402;2024-01-06T07:54:10;98616.50;;;6.45;100.00
13869;BME280;7004;48.206;16.402;2024-01-06T07:56:38;98621.25;;;6.26;100.00
13869;BME280;7004;48.206;16.402;2024-01-06T07:59:05;98613.97;;;6.71;100.00
13869;BME280;7004;48.206;16.402;2024-01-06T08:01:31;98619.41;;;6.41;100.00
13869;BME280;7004;48.206;16.402;2024-01-06T08:03:58;98622.97;;;6.40;100.00
13869;BME280;7004;48.206;16.402;2024-01-06T08:06:24;98625.16;;;6.87;100.00
13869;BME280;7004;48.206;16.402;2024-01-06T08:08:51;98628.72;;;6.32;100.00
13869;BME280;7004;48.206;16.402;2024-01-06T08:11:17;98639.41;;;6.29;100.00
13869;BME280;7004;48.206;16.402;2024-01-06T08:13:43;98639.63;;;6.11;100.00
13869;BME280;7004;48.206;16.402;2024-01-06T08:16:09;98626.97;;;6.60;100.00
13869;BME280;7004;48.206;16.402;2024-01-06T08:18:35;98637.56;;;6.58;100.00
13869;BME280;7004;48.206;16.402;2024-01-06T08:21:02;98634.78;;;6.47;100.00
13869;BME280;7004;48.206;16.402;2024-01-06T08:23:28;98643.81;;;6.28;100.00
13869;BME280;7004;48.206;16.402;2024-01-06T08:25:54;98638.78;;;6.52;100.00
13869;BME280;7004;48.206;16.402;2024-01-06T08:28:20;98637.19;;;6.64;100.00
13869;BME280;7004;48.206;16.402;2024-01-06T08:30:49;98648.47;;;6.38;100.00
13869;BME280;7004;48.206;16.402;2024-01-06T08:33:16;98650.91;;;6.41;100.00
13869;BME280;7004;48.206;16.402;2024-01-06T08:35:44;98646.25;;;6.31;100.00
13869;BME280;7004;48.206;16.402;2024-01-06T08:38:10;98647.91;;;6.47;100.00
13869;BME280;7004;48.206;16.402;2024-01-06T08:40:37;98649.88;;;6.43;100.00
13869;BME280;7004;48.206;16.402;2024-01-06T08:43:04;98650.78;;;6.15;100.00
13869;BME280;7004;48.206;16.402;2024-01-06T08:45:30;98655.78;;;6.47;100.00
13869;BME280;7004;48.206;16.402;2024-01-06T08:48:02;98656.84;;;6.30;100.00
13869;BME280;7004;48.206;16.402;2024-01-06T08:50:28;98661.03;;;6.47;100.00
13869;BME280;7004;48.206;16.402;2024-01-06T08:52:54;98656.19;;;6.68;100.00
13869;BME280;7004;48.206;16.402;2024-01-06T08:55:20;98661.47;;;6.53;100.00
13869;BME280;7004;48.206;16.402;2024-01-06T08:57:46;98662.34;;;6.40;100.00
13869;BME280;7004;48.206;16.402;2024-01-06T09:00:13;98666.94;;;6.77;100.00
13869;BME280;7004;48.206;16.402;2024-01-06T09:02:40;98675.25;;;6.57;100.00
13869;BME280;7004;48.206;16.402;2024-01-06T09:05:06;98675.41;;;6.41;100.00
13869;BME280;7004;48.206;16.402;2024-01-06T09:07:32;98665.28;;;6.89;100.00
13869;BME280;7004;48.206;16.402;2024-01-06T09:09:58;98675.97;;;6.73;100.00
13869;BME280;7004;48.206;16.402;2024-01-06T09:12:25;98680.03;;;6.50;100.00
13869;BME280;7004;48.206;16.402;2024-01-06T09:14:51;98670.56;;;6.89;100.00
13869;BME280;7004;48.206;16.402;2024-01-06T09:17:17;98683.50;;;6.51;100.00
13869;BME280;7004;48.206;16.402;2024-01-06T09:19:43;98686.31;;;6.62;99.43
13869;BME280;7004;48.206;16.402;2024-01-06T09:22:09;98689.91;;;6.47;99.75
13869;BME280;7004;48.206;16.402;2024-01-06T09:24:35;98694.19;;;6.62;100.00
13869;BME280;7004;48.206;16.402;2024-01-06T09:27:02;98693.09;;;6.38;100.00
13869;BME280;7004;48.206;16.402;2024-01-06T09:29:29;98706.81;;;6.28;100.00
13869;BME280;7004;48.206;16.402;2024-01-06T09:31:55;98700.16;;;6.23;100.00
13869;BME280;7004;48.206;16.402;2024-01-06T09:34:21;98702.75;;;6.37;99.86
13869;BME280;7004;48.206;16.402;2024-01-06T09:36:47;98705.84;;;6.44;99.74
13869;BME280;7004;48.206;16.402;2024-01-06T09:39:13;98695.66;;;6.25;100.00
13869;BME280;7004;48.206;16.402;2024-01-06T09:41:39;98697.09;;;6.72;98.56
13869;BME280;7004;48.206;16.402;2024-01-06T09:44:05;98692.88;;;6.55;99.11
13869;BME280;7004;48.206;16.402;2024-01-06T09:46:32;98694.50;;;6.43;99.76
13869;BME280;7004;48.206;16.402;2024-01-06T09:48:58;98687.13;;;6.36;100.00
13869;BME280;7004;48.206;16.402;2024-01-06T09:51:25;98691.44;;;6.78;98.49
13869;BME280;7004;48.206;16.402;2024-01-06T09:54:00;98688.75;;;6.51;99.11
13869;BME280;7004;48.206;16.402;2024-01-06T09:56:29;98685.34;;;6.77;98.89
13869;BME280;7004;48.206;16.402;2024-01-06T09:58:58;98694.69;;;6.40;99.22
13869;BME280;7004;48.206;16.402;2024-01-06T10:01:24;98698.09;;;6.28;99.34
13869;BME280;7004;48.206;16.402;2024-01-06T10:03:50;98692.25;;;6.37;98.92
13869;BME280;7004;48.206;16.402;2024-01-06T10:06:17;98693.84;;;6.40;100.00
13869;BME280;7004;48.206;16.402;2024-01-06T10:08:48;98694.28;;;6.05;100.00
13869;BME280;7004;48.206;16.402;2024-01-06T10:11:14;98696.19;;;6.44;99.97
13869;BME280;7004;48.206;16.402;2024-01-06T10:13:40;98689.69;;;6.64;98.76
13869;BME280;7004;48.206;16.402;2024-01-06T10:16:06;98697.03;;;6.45;99.39
13869;BME280;7004;48.206;16.402;2024-01-06T10:18:33;98702.72;;;6.66;99.03
13869;BME280;7004;48.206;16.402;2024-01-06T10:21:05;98696.06;;;6.60;97.79
13869;BME280;7004;48.206;16.402;2024-01-06T10:23:32;98701.81;;;6.52;99.57
13869;BME280;7004;48.206;16.402;2024-01-06T10:25:59;98702.75;;;6.51;99.90
13869;BME280;7004;48.206;16.402;2024-01-06T10:28:25;98706.50;;;6.62;100.00
13869;BME280;7004;48.206;16.402;2024-01-06T10:30:55;98696.41;;;6.83;100.00
13869;BME280;7004;48.206;16.402;2024-01-06T10:33:27;98699.94;;;6.82;99.41
13869;BME280;7004;48.206;16.402;2024-01-06T10:35:53;98699.59;;;6.73;99.62
13869;BME280;7004;48.206;16.402;2024-01-06T10:38:22;98700.53;;;6.72;100.00
13869;BME280;7004;48.206;16.402;2024-01-06T10:41:04;98696.00;;;6.89;100.00
13869;BME280;7004;48.206;16.402;2024-01-06T10:43:36;98690.72;;;6.89;100.00
13869;BME280;7004;48.206;16.402;2024-01-06T10:46:04;98699.00;;;7.10;100.00
13869;BME280;7004;48.206;16.402;2024-01-06T10:48:35;98686.50;;;6.86;100.00
13869;BME280;7004;48.206;16.402;2024-01-06T10:51:04;98681.34;;;7.12;98.61
13869;BME280;7004;48.206;16.402;2024-01-06T10:53:33;98690.59;;;7.96;94.18
13869;BME280;7004;48.206;16.402;2024-01-06T10:56:06;98685.09;;;9.69;90.20
13869;BME280;7004;48.206;16.402;2024-01-06T10:58:35;98684.25;;;8.11;91.34
13869;BME280;7004;48.206;16.402;2024-01-06T11:01:11;98684.44;;;8.34;90.60
13869;BME280;7004;48.206;16.402;2024-01-06T11:03:39;98685.44;;;7.69;94.15
13869;BME280;7004;48.206;16.402;2024-01-06T11:06:06;98684.25;;;7.34;94.12
13869;BME280;7004;48.206;16.402;2024-01-06T11:08:47;98682.81;;;7.16;94.24
13869;BME280;7004;48.206;16.402;2024-01-06T11:11:22;98679.28;;;7.30;95.00
13869;BME280;7004;48.206;16.402;2024-01-06T11:13:49;98664.97;;;7.21;96.89
13869;BME280;7004;48.206;16.402;2024-01-06T11:16:36;98658.25;;;6.63;99.30
13869;BME280;7004;48.206;16.402;2024-01-06T11:19:03;98656.66;;;7.14;97.30
13869;BME280;7004;48.206;16.402;2024-01-06T11:21:48;98653.63;;;6.81;98.33
13869;BME280;7004;48.206;16.402;2024-01-06T11:24:20;98652.59;;;6.69;99.51
13869;BME280;7004;48.206;16.402;2024-01-06T11:26:52;98652.78;;;6.80;98.50
13869;BME280;7004;48.206;16.402;2024-01-06T11:29:20;98659.78;;;7.07;98.39
13869;BME280;7004;48.206;16.402;2024-01-06T11:32:18;98654.91;;;6.61;97.91
13869;BME280;7004;48.206;16.402;2024-01-06T11:34:52;98649.75;;;6.59;98.51
13869;BME280;7004;48.206;16.402;2024-01-06T11:40:11;98648.16;;;6.84;98.01
13869;BME280;7004;48.206;16.402;2024-01-06T11:42:57;98652.66;;;6.82;99.55
13869;BME280;7004;48.206;16.402;2024-01-06T11:45:25;98654.19;;;6.44;99.90
13869;BME280;7004;48.206;16.402;2024-01-06T11:47:56;98645.19;;;6.75;98.67
13869;BME280;7004;48.206;16.402;2024-01-06T11:50:26;98653.44;;;6.42;100.00
13869;BME280;7004;48.206;16.402;2024-01-06T11:52:53;98642.16;;;6.82;97.95
13869;BME280;7004;48.206;16.402;2024-01-06T11:55:20;98640.34;;;6.69;99.74
13869;BME280;7004;48.206;16.402;2024-01-06T11:57:47;98647.34;;;6.69;98.32
13869;BME280;7004;48.206;16.402;2024-01-06T12:00:16;98641.63;;;6.49;97.92
13869;BME280;7004;48.206;16.402;2024-01-06T12:02:42;98646.09;;;6.20;99.21
13869;BME280;7004;48.206;16.402;2024-01-06T12:05:14;98639.94;;;6.75;98.46
13869;BME280;7004;48.206;16.402;2024-01-06T12:07:41;98647.41;;;6.82;98.81
13869;BME280;7004;48.206;16.402;2024-01-06T12:10:11;98647.13;;;6.59;99.29
13869;BME280;7004;48.206;16.402;2024-01-06T12:12:38;98646.59;;;6.40;98.57
13869;BME280;7004;48.206;16.402;2024-01-06T12:15:05;98654.75;;;6.49;98.22
13869;BME280;7004;48.206;16.402;2024-01-06T12:17:31;98653.72;;;6.52;98.21
13869;BME280;7004;48.206;16.402;2024-01-06T12:19:58;98656.31;;;7.06;97.25
13869;BME280;7004;48.206;16.402;2024-01-06T12:22:24;98659.31;;;6.46;98.81
13869;BME280;7004;48.206;16.402;2024-01-06T12:24:50;98658.19;;;6.64;98.51
13869;BME280;7004;48.206;16.402;2024-01-06T12:27:17;98656.22;;;7.20;96.83
13869;BME280;7004;48.206;16.402;2024-01-06T12:29:44;98647.06;;;7.13;97.24
13869;BME280;7004;48.206;16.402;2024-01-06T12:32:10;98650.84;;;7.09;98.34
13869;BME280;7004;48.206;16.402;2024-01-06T12:34:39;98650.41;;;7.03;97.78
13869;BME280;7004;48.206;16.402;2024-01-06T12:37:07;98650.31;;;6.77;97.71
13869;BME280;7004;48.206;16.402;2024-01-06T12:39:33;98649.75;;;6.59;97.31
13869;BME280;7004;48.206;16.402;2024-01-06T12:42:01;98647.53;;;6.80;97.86
13869;BME280;7004;48.206;16.402;2024-01-06T12:44:28;98653.19;;;6.87;95.86
13869;BME280;7004;48.206;16.402;2024-01-06T12:46:54;98651.41;;;6.87;97.95
13869;BME280;7004;48.206;16.402;2024-01-06T12:49:20;98648.41;;;6.66;98.17
13869;BME280;7004;48.206;16.402;2024-01-06T12:51:46;98651.78;;;6.95;97.47
13869;BME280;7004;48.206;16.402;2024-01-06T12:54:12;98647.03;;;6.88;97.16
13869;BME280;7004;48.206;16.402;2024-01-06T12:56:39;98645.88;;;6.92;97.97
13869;BME280;7004;48.206;16.402;2024-01-06T12:59:06;98647.75;;;6.36;99.65
13869;BME280;7004;48.206;16.402;2024-01-06T13:01:32;98645.31;;;6.87;98.32
13869;BME280;7004;48.206;16.402;2024-01-06T13:03:58;98644.28;;;6.89;99.82
13869;BME280;7004;48.206;16.402;2024-01-06T13:06:26;98645.63;;;6.82;96.46
13869;BME280;7004;48.206;16.402;2024-01-06T13:08:53;98657.47;;;6.48;97.88